Terminal Aerodrome Forecast
Issued by NWS

Home | Current Version | Previous Version | Text Only | Print | Product List | Glossary On
Versions: 1 2 3 4 5 6 7 8 9 10 11 12 13 14 15 16 17 18 19 20 21 22 23 24
000
FTUS45 KRIW 212300
TAFPNA
TAF
KPNA 212336Z 2200/2224 30010KT P6SM VCSH SCT070 BKN100
     FM220230 30008KT P6SM VCTS SCT070CB BKN100
     FM220600 11005KT P6SM BKN100
     FM221600 19011KT P6SM VCSH BKN070 OVC100
     FM221900 20013KT P6SM VCTS SCT040CB BKN060
      AMD LTD TO CLD VIS AND WIND=

USA.gov is the U.S. government's official web portal to all federal, state and local government web resources and services.